createdAt,value
2023-01-27T00:00:56.040Z,-0.24
2023-01-27T00:01:58.408Z,-0.30
2023-01-27T00:03:00.608Z,-0.24
2023-01-27T00:04:03.356Z,-0.15
2023-01-27T00:05:12.801Z,-0.05
2023-01-27T00:06:15.025Z,-0.02
2023-01-27T00:07:17.289Z,-0.04
2023-01-27T00:08:19.786Z,0.03
2023-01-27T00:09:21.995Z,0.08
2023-01-27T00:10:24.591Z,0.03
2023-01-27T00:11:45.859Z,-0.17
2023-01-27T00:13:06.943Z,-0.24
2023-01-27T00:14:09.162Z,-0.28
2023-01-27T00:15:13.604Z,-0.10
2023-01-27T00:16:15.959Z,-0.10
2023-01-27T00:17:18.209Z,-0.14
2023-01-27T00:18:20.770Z,-0.10
2023-01-27T00:19:23.021Z,-0.11
2023-01-27T00:20:44.237Z,-0.19
2023-01-27T00:22:06.540Z,-0.05
2023-01-27T00:23:33.488Z,0.04
2023-01-27T00:24:35.911Z,-0.05
2023-01-27T00:25:38.163Z,-0.09
2023-01-27T00:26:40.587Z,0.00
2023-01-27T00:27:42.940Z,0.01
2023-01-27T00:28:46.741Z,0.02
2023-01-27T00:29:49.034Z,0.05
2023-01-27T00:30:51.926Z,0.09
2023-01-27T00:32:12.441Z,0.16
2023-01-27T00:33:29.484Z,0.16
2023-01-27T00:34:31.624Z,0.10
2023-01-27T00:35:34.517Z,0.02
2023-01-27T00:36:38.744Z,-0.20
2023-01-27T00:37:40.968Z,-0.24
2023-01-27T00:38:43.351Z,-0.29
2023-01-27T00:39:45.659Z,-0.24
2023-01-27T00:41:07.905Z,-0.17
2023-01-27T00:42:10.574Z,-0.07
2023-01-27T00:43:12.902Z,-0.04
2023-01-27T00:44:15.975Z,-0.06
2023-01-27T00:45:36.811Z,-0.14
2023-01-27T00:46:39.259Z,-0.09
2023-01-27T00:47:44.106Z,-0.08
2023-01-27T00:48:46.380Z,0.00
2023-01-27T00:49:48.569Z,0.04
2023-01-27T00:50:50.801Z,0.03
2023-01-27T00:51:54.928Z,0.05
2023-01-27T00:52:59.041Z,0.03
2023-01-27T00:54:03.045Z,0.16
2023-01-27T00:55:10.660Z,0.25
2023-01-27T00:56:13.277Z,0.20
2023-01-27T00:57:15.830Z,0.25
2023-01-27T00:58:18.061Z,0.20
2023-01-27T01:00:36.847Z,-0.13
2023-01-27T01:01:39.661Z,-0.14
2023-01-27T01:02:41.991Z,-0.07
2023-01-27T01:03:45.122Z,0.00
2023-01-27T01:04:47.410Z,0.02
2023-01-27T01:05:49.933Z,-0.01
2023-01-27T01:06:52.138Z,-0.10
2023-01-27T01:07:54.417Z,0.01
2023-01-27T01:08:57.887Z,0.07
2023-01-27T01:10:00.240Z,0.11
2023-01-27T01:11:03.229Z,0.14
2023-01-27T01:12:05.462Z,0.12
2023-01-27T01:13:10.067Z,0.19
2023-01-27T01:14:12.319Z,0.27
2023-01-27T01:15:14.606Z,0.28
2023-01-27T01:16:19.667Z,0.33
2023-01-27T01:17:21.982Z,0.25
2023-01-27T01:18:24.572Z,0.25
2023-01-27T01:19:26.794Z,0.44
2023-01-27T01:20:29.279Z,0.38
2023-01-27T01:21:31.966Z,0.32
2023-01-27T01:22:34.470Z,0.32
2023-01-27T01:23:42.209Z,0.30
2023-01-27T01:24:47.557Z,0.34
2023-01-27T01:25:57.193Z,0.29
2023-01-27T01:27:00.339Z,0.33
2023-01-27T01:28:05.554Z,0.32
2023-01-27T01:29:07.797Z,0.38
2023-01-27T01:30:10.836Z,0.37
2023-01-27T01:31:16.511Z,0.36
2023-01-27T01:32:19.449Z,0.35
2023-01-27T01:33:21.809Z,0.32
2023-01-27T01:34:24.890Z,0.39
2023-01-27T01:35:27.259Z,0.35
2023-01-27T01:36:29.514Z,0.38
2023-01-27T01:37:31.864Z,0.30
2023-01-27T01:38:34.314Z,0.25
2023-01-27T01:39:36.559Z,0.27
2023-01-27T01:40:44.180Z,0.29
2023-01-27T01:41:47.005Z,0.29
2023-01-27T01:42:55.541Z,0.32
2023-01-27T01:43:57.786Z,0.32
2023-01-27T01:45:34.100Z,0.14
2023-01-27T01:46:36.364Z,0.11
2023-01-27T01:47:39.277Z,0.17
2023-01-27T01:48:47.369Z,0.17
2023-01-27T01:49:49.728Z,0.25
2023-01-27T01:51:05.790Z,0.23
2023-01-27T01:52:17.282Z,0.24
2023-01-27T01:53:22.319Z,0.16
2023-01-27T01:54:29.913Z,0.20
2023-01-27T01:55:36.387Z,-0.02
2023-01-27T01:56:53.642Z,-0.23
2023-01-27T01:57:55.957Z,-0.20
2023-01-27T01:59:02.280Z,-0.09
2023-01-27T02:02:15.582Z,0.06
2023-01-27T02:03:18.093Z,0.06
2023-01-27T02:04:25.203Z,0.17
2023-01-27T02:05:32.430Z,0.15
2023-01-27T02:06:53.935Z,0.18
2023-01-27T02:08:06.009Z,0.14
2023-01-27T02:09:08.198Z,0.19
2023-01-27T02:10:12.479Z,0.15
2023-01-27T02:11:14.870Z,0.35
2023-01-27T02:12:17.245Z,0.17
2023-01-27T02:13:19.477Z,0.16
2023-01-27T02:14:21.775Z,0.18
2023-01-27T02:15:24.177Z,0.25
2023-01-27T02:16:29.487Z,0.16
2023-01-27T02:17:33.924Z,0.30
2023-01-27T02:18:38.604Z,0.39
2023-01-27T02:20:08.046Z,0.37
2023-01-27T02:21:10.499Z,0.40
2023-01-27T02:22:37.673Z,0.48
2023-01-27T02:23:46.819Z,0.42
2023-01-27T02:24:55.002Z,0.48
2023-01-27T02:26:09.831Z,0.43
2023-01-27T02:27:14.229Z,0.32
2023-01-27T02:28:16.534Z,0.23
2023-01-27T02:29:18.859Z,0.18
2023-01-27T02:30:21.352Z,0.25
2023-01-27T02:31:24.422Z,0.26
2023-01-27T02:32:27.236Z,0.33
2023-01-27T02:33:30.948Z,0.28
2023-01-27T02:34:36.717Z,0.28
2023-01-27T02:35:52.420Z,0.25
2023-01-27T02:36:58.620Z,0.31
2023-01-27T02:38:01.578Z,0.29
2023-01-27T02:39:07.971Z,0.34
2023-01-27T02:40:11.823Z,0.38
2023-01-27T02:41:37.341Z,0.36
2023-01-27T02:42:39.538Z,0.43
2023-01-27T02:43:42.044Z,0.39
2023-01-27T02:44:44.407Z,0.31
2023-01-27T02:45:47.342Z,0.36
2023-01-27T02:46:50.251Z,0.31
2023-01-27T02:47:52.611Z,0.33
2023-01-27T02:55:02.761Z,0.26
2023-01-27T02:56:06.085Z,0.28
2023-01-27T02:57:08.407Z,0.25
2023-01-27T02:58:20.991Z,0.22
2023-01-27T02:59:27.097Z,0.28
2023-01-27T03:00:29.470Z,0.30
2023-01-27T03:01:32.703Z,0.34
2023-01-27T03:02:35.690Z,0.30
2023-01-27T03:03:44.095Z,0.25
2023-01-27T03:04:46.595Z,0.32
2023-01-27T03:05:51.566Z,0.34
2023-01-27T03:06:53.815Z,0.24
2023-01-27T03:07:56.296Z,0.27
2023-01-27T03:08:58.492Z,0.32
2023-01-27T03:10:00.936Z,0.36
2023-01-27T03:11:05.240Z,0.41
2023-01-27T03:12:19.723Z,0.30
2023-01-27T03:13:25.451Z,0.19
2023-01-27T03:14:46.634Z,0.18
2023-01-27T03:16:08.196Z,0.17
2023-01-27T03:17:30.084Z,0.22
2023-01-27T03:18:33.050Z,0.05
2023-01-27T03:19:35.254Z,0.15
2023-01-27T03:20:43.442Z,0.27
2023-01-27T03:21:45.947Z,0.30
2023-01-27T03:22:49.262Z,0.23
2023-01-27T03:23:51.730Z,0.31
2023-01-27T03:24:57.762Z,0.32
2023-01-27T03:26:05.440Z,0.23
2023-01-27T03:27:07.697Z,0.25
2023-01-27T03:28:29.931Z,0.32
2023-01-27T03:29:55.815Z,0.20
2023-01-27T03:31:09.489Z,0.21
2023-01-27T03:32:27.623Z,0.19
2023-01-27T03:38:26.931Z,0.21
2023-01-27T03:39:49.088Z,0.18
2023-01-27T03:41:10.249Z,0.22
2023-01-27T03:42:30.979Z,0.23
2023-01-27T03:43:52.243Z,0.22
2023-01-27T03:45:13.664Z,0.20
2023-01-27T03:46:19.068Z,0.23
2023-01-27T03:47:21.578Z,0.22
2023-01-27T03:48:24.154Z,0.27
2023-01-27T03:49:26.681Z,0.27
2023-01-27T03:50:37.634Z,0.24
2023-01-27T03:51:40.291Z,0.25
2023-01-27T03:53:02.586Z,0.23
2023-01-27T03:54:05.009Z,0.31
2023-01-27T03:55:09.186Z,0.21
2023-01-27T03:56:12.498Z,0.27
2023-01-27T03:57:14.748Z,0.27
2023-01-27T03:58:21.544Z,0.11
2023-01-27T03:59:23.797Z,0.05
2023-01-27T04:00:26.011Z,0.11
2023-01-27T04:01:28.353Z,0.17
2023-01-27T04:02:52.161Z,0.21
2023-01-27T04:04:12.580Z,0.16
2023-01-27T04:05:33.543Z,0.22
2023-01-27T04:07:00.638Z,0.27
2023-01-27T04:08:05.508Z,0.22
2023-01-27T04:09:09.151Z,0.23
2023-01-27T04:10:11.467Z,0.22
2023-01-27T04:11:32.105Z,0.21
2023-01-27T04:12:34.334Z,0.21
2023-01-27T04:13:36.587Z,0.26
2023-01-27T04:14:42.926Z,0.30
2023-01-27T04:15:45.159Z,0.23
2023-01-27T04:16:47.861Z,0.25
2023-01-27T04:17:50.089Z,0.28
2023-01-27T04:18:52.268Z,0.31
2023-01-27T04:19:54.443Z,0.32
2023-01-27T04:20:56.617Z,0.24
2023-01-27T04:22:00.221Z,0.27
2023-01-27T04:23:02.451Z,0.25
2023-01-27T04:24:08.541Z,0.32
2023-01-27T04:25:13.031Z,0.34
2023-01-27T04:26:15.676Z,0.25
2023-01-27T04:27:20.169Z,0.25
2023-01-27T04:28:37.521Z,0.24
2023-01-27T04:29:44.309Z,0.18
2023-01-27T04:30:46.670Z,0.17
2023-01-27T04:31:49.757Z,0.19
2023-01-27T04:32:51.984Z,0.30
2023-01-27T04:33:54.339Z,0.30
2023-01-27T04:34:56.565Z,0.29
2023-01-27T04:35:58.842Z,0.31
2023-01-27T04:37:03.369Z,0.21
2023-01-27T04:38:05.603Z,0.23
2023-01-27T04:39:08.767Z,0.08
2023-01-27T04:40:11.608Z,-0.02
2023-01-27T04:41:13.847Z,-0.03
2023-01-27T04:42:16.175Z,-0.08
2023-01-27T04:43:18.497Z,-0.15
2023-01-27T04:44:23.538Z,0.04
2023-01-27T04:45:25.764Z,0.06
2023-01-27T04:46:27.991Z,-0.05
2023-01-27T04:47:30.171Z,-0.33
2023-01-27T04:48:32.491Z,-0.35
2023-01-27T04:49:34.709Z,-0.54
2023-01-27T04:50:36.964Z,-0.56
2023-01-27T04:51:39.418Z,-0.56
2023-01-27T04:52:41.948Z,-0.55
2023-01-27T04:53:44.201Z,-0.42
2023-01-27T04:54:46.411Z,-0.52
2023-01-27T04:55:50.010Z,-0.47
2023-01-27T04:56:58.474Z,-0.45
2023-01-27T04:58:01.467Z,-0.53
2023-01-27T04:59:06.779Z,-0.42
2023-01-27T05:00:11.365Z,-0.30
2023-01-27T05:01:13.569Z,-0.22
2023-01-27T05:02:15.991Z,-0.27
2023-01-27T05:03:18.359Z,-0.36
2023-01-27T05:04:20.723Z,-0.30
2023-01-27T05:05:23.022Z,-0.41
2023-01-27T05:06:26.271Z,-0.49
2023-01-27T05:07:29.370Z,-0.40
2023-01-27T05:08:32.523Z,-0.23
2023-01-27T05:09:34.805Z,-0.21
2023-01-27T05:10:37.322Z,-0.14
2023-01-27T05:11:39.620Z,-0.08
2023-01-27T05:12:41.847Z,-0.17
2023-01-27T05:13:44.151Z,-0.09
2023-01-27T05:14:46.411Z,-0.06
2023-01-27T05:15:49.004Z,0.04
2023-01-27T05:16:51.656Z,-0.08
2023-01-27T05:17:53.954Z,0.03
2023-01-27T05:18:56.263Z,0.15
2023-01-27T05:19:58.525Z,0.19
2023-01-27T05:21:02.007Z,0.28
2023-01-27T05:22:04.275Z,0.23
2023-01-27T05:23:24.735Z,0.17
2023-01-27T05:24:27.043Z,0.12
2023-01-27T05:25:29.274Z,0.09
2023-01-27T05:26:31.502Z,0.10
2023-01-27T05:27:33.796Z,0.17
2023-01-27T05:28:37.774Z,0.21
2023-01-27T05:29:40.392Z,0.24
2023-01-27T05:30:42.847Z,0.20
2023-01-27T05:31:45.634Z,-0.14
2023-01-27T05:32:47.870Z,-0.02
2023-01-27T05:33:52.037Z,0.12
2023-01-27T05:34:54.644Z,0.10
2023-01-27T05:36:04.654Z,0.11
2023-01-27T05:37:06.817Z,0.11
2023-01-27T05:38:09.091Z,0.12
2023-01-27T05:39:11.641Z,0.07
2023-01-27T05:40:13.873Z,0.11
2023-01-27T05:41:17.735Z,0.08
2023-01-27T05:42:20.154Z,-0.11
2023-01-27T05:43:22.607Z,-0.50
2023-01-27T05:44:24.835Z,-0.59
2023-01-27T05:45:27.014Z,-0.62
2023-01-27T05:46:31.723Z,-0.53
2023-01-27T05:47:33.964Z,-0.37
2023-01-27T05:48:39.108Z,-0.53
2023-01-27T05:49:41.493Z,-0.57
2023-01-27T05:50:43.695Z,-0.68
2023-01-27T05:51:45.908Z,-0.52
2023-01-27T05:52:48.132Z,-0.66
2023-01-27T05:53:50.833Z,-0.79
2023-01-27T05:54:53.090Z,-0.69
2023-01-27T05:55:55.396Z,-0.71
2023-01-27T05:56:57.835Z,-0.78
2023-01-27T05:58:00.679Z,-0.74
2023-01-27T05:59:03.146Z,-0.73
2023-01-27T06:00:05.889Z,-0.76
2023-01-27T06:01:13.797Z,-0.73
2023-01-27T06:02:16.083Z,-0.80
2023-01-27T06:03:18.405Z,-0.80
2023-01-27T06:04:20.830Z,-0.66
2023-01-27T06:05:23.086Z,-0.62
2023-01-27T06:06:27.619Z,-0.39
2023-01-27T06:07:29.979Z,-0.35
2023-01-27T06:08:32.696Z,-0.49
2023-01-27T06:09:35.004Z,-0.31
2023-01-27T06:10:37.342Z,-0.12
2023-01-27T06:11:39.595Z,-0.02
2023-01-27T06:12:41.770Z,-0.06
2023-01-27T06:13:43.971Z,-0.01
2023-01-27T06:14:46.206Z,0.01
2023-01-27T06:15:49.018Z,0.09
2023-01-27T06:16:53.559Z,-0.09
2023-01-27T06:17:55.773Z,-0.14
2023-01-27T06:18:58.681Z,-0.00
2023-01-27T06:20:00.909Z,-0.00
2023-01-27T06:21:05.133Z,0.14
2023-01-27T06:22:07.343Z,0.24
2023-01-27T06:23:10.906Z,-0.03
2023-01-27T06:24:13.856Z,-0.07
2023-01-27T06:25:16.675Z,-0.02
2023-01-27T06:26:19.802Z,0.09
2023-01-27T06:27:21.947Z,0.17
2023-01-27T06:28:29.123Z,0.18
2023-01-27T06:29:31.770Z,0.05
2023-01-27T06:30:35.755Z,-0.11
2023-01-27T06:31:38.123Z,-0.02
2023-01-27T06:32:40.291Z,-0.27
2023-01-27T06:33:42.831Z,-0.26
2023-01-27T06:34:45.004Z,-0.08
2023-01-27T06:35:47.365Z,0.09
2023-01-27T06:36:49.704Z,0.14
2023-01-27T06:37:51.988Z,0.22
2023-01-27T06:38:54.311Z,0.30
2023-01-27T06:39:56.488Z,0.30
2023-01-27T06:40:59.785Z,0.05
2023-01-27T06:42:02.029Z,0.10
2023-01-27T06:43:04.469Z,0.23
2023-01-27T06:44:06.673Z,0.20
2023-01-27T06:45:09.807Z,0.37
2023-01-27T06:46:12.345Z,0.29
2023-01-27T06:47:14.603Z,0.25
2023-01-27T06:48:16.882Z,0.29
2023-01-27T06:49:19.490Z,0.06
2023-01-27T06:50:22.117Z,-0.11
2023-01-27T06:51:24.345Z,0.11
2023-01-27T06:52:26.581Z,-0.03
2023-01-27T06:53:29.047Z,-0.31
2023-01-27T06:54:31.512Z,-0.21
2023-01-27T06:55:35.487Z,-0.08
2023-01-27T06:56:37.674Z,-0.05
2023-01-27T06:57:41.122Z,0.14
2023-01-27T06:58:43.528Z,0.19
2023-01-27T06:59:45.829Z,-0.09
2023-01-27T07:00:48.174Z,-0.06
2023-01-27T07:01:50.597Z,-0.00
2023-01-27T07:02:55.730Z,-0.05
2023-01-27T07:03:58.011Z,-0.17
2023-01-27T07:05:00.448Z,-0.04
2023-01-27T07:06:02.965Z,-0.09
2023-01-27T07:07:05.468Z,-0.18
2023-01-27T07:08:08.106Z,-0.06
2023-01-27T07:09:11.066Z,-0.31
2023-01-27T07:10:13.504Z,-0.23
2023-01-27T07:11:15.892Z,0.01
2023-01-27T07:12:18.096Z,-0.10
2023-01-27T07:13:20.300Z,-0.33
2023-01-27T07:14:22.520Z,-0.21
2023-01-27T07:15:24.758Z,-0.44
2023-01-27T07:16:26.978Z,-0.55
2023-01-27T07:17:29.204Z,-0.65
2023-01-27T07:18:31.454Z,-0.76
2023-01-27T07:19:35.170Z,-0.74
2023-01-27T07:20:37.700Z,-0.80
2023-01-27T07:21:39.977Z,-0.80
2023-01-27T07:22:42.137Z,-0.78
2023-01-27T07:23:44.500Z,-0.70
2023-01-27T07:24:46.964Z,-0.61
2023-01-27T07:25:49.201Z,-0.61
2023-01-27T07:26:51.395Z,-0.58
2023-01-27T07:27:53.879Z,-0.71
2023-01-27T07:28:56.763Z,-0.65
2023-01-27T07:29:58.997Z,-0.63
2023-01-27T07:31:02.712Z,-0.64
2023-01-27T07:32:05.134Z,-0.69
2023-01-27T07:33:09.691Z,-0.68
2023-01-27T07:34:11.961Z,-0.73
2023-01-27T07:35:14.300Z,-0.65
2023-01-27T07:36:16.580Z,-0.74
2023-01-27T07:37:18.816Z,-0.68
2023-01-27T07:38:21.685Z,-0.67
2023-01-27T07:39:23.862Z,-0.82
2023-01-27T07:40:26.117Z,-0.78
2023-01-27T07:41:28.365Z,-0.73
2023-01-27T07:42:30.563Z,-0.73
2023-01-27T07:43:33.777Z,-0.74
2023-01-27T07:44:35.997Z,-0.46
2023-01-27T07:45:38.549Z,-0.57
2023-01-27T07:46:40.783Z,-0.65
2023-01-27T07:47:42.979Z,-0.65
2023-01-27T07:48:45.180Z,-0.74
2023-01-27T07:49:47.587Z,-0.75
2023-01-27T07:50:50.040Z,-0.67
2023-01-27T07:51:52.524Z,-0.67
2023-01-27T07:52:54.753Z,-0.76
2023-01-27T07:53:57.060Z,-0.82
2023-01-27T07:54:59.283Z,-0.74
2023-01-27T07:56:01.642Z,-0.58
2023-01-27T07:57:03.914Z,-0.52
2023-01-27T07:58:06.156Z,-0.41
2023-01-27T07:59:10.793Z,-0.26
2023-01-27T08:00:15.464Z,-0.14
2023-01-27T08:01:18.180Z,-0.24
2023-01-27T08:02:20.550Z,-0.26
2023-01-27T08:03:24.639Z,-0.22
2023-01-27T08:04:27.274Z,-0.33
2023-01-27T08:05:33.247Z,-0.47
2023-01-27T08:06:38.215Z,-0.51
2023-01-27T08:07:40.427Z,-0.63
2023-01-27T08:08:42.693Z,-0.71
2023-01-27T08:09:44.896Z,-0.76
2023-01-27T08:10:49.264Z,-0.68
2023-01-27T08:11:51.522Z,-0.69
2023-01-27T08:12:53.867Z,-0.63
2023-01-27T08:13:56.106Z,-0.70
2023-01-27T08:14:58.347Z,-0.71
2023-01-27T08:16:01.835Z,-0.72
2023-01-27T08:17:04.103Z,-0.72
2023-01-27T08:18:06.300Z,-0.68
2023-01-27T08:19:08.575Z,-0.66
2023-01-27T08:20:11.588Z,-0.52
2023-01-27T08:21:14.011Z,-0.50
2023-01-27T08:22:20.954Z,-0.32
2023-01-27T08:23:23.354Z,-0.45
2023-01-27T08:24:25.665Z,-0.43
2023-01-27T08:25:27.891Z,-0.41
2023-01-27T08:26:30.139Z,-0.36
2023-01-27T08:27:32.637Z,-0.47
2023-01-27T08:28:38.360Z,-0.46
2023-01-27T08:29:40.650Z,-0.35
2023-01-27T08:30:42.925Z,-0.26
2023-01-27T08:31:45.212Z,-0.34
2023-01-27T08:32:47.938Z,-0.40
2023-01-27T08:33:52.557Z,-0.30
2023-01-27T08:34:55.469Z,-0.41
2023-01-27T08:36:03.072Z,-0.39
2023-01-27T08:37:05.790Z,-0.14
2023-01-27T08:38:08.106Z,-0.14
2023-01-27T08:39:11.404Z,-0.21
2023-01-27T08:40:14.403Z,-0.21
2023-01-27T08:41:27.819Z,-0.08
2023-01-27T08:42:30.122Z,-0.21
2023-01-27T08:43:32.529Z,-0.13
2023-01-27T08:44:36.181Z,-0.27
2023-01-27T08:45:38.822Z,-0.20
2023-01-27T08:46:41.166Z,-0.16
2023-01-27T08:47:43.444Z,-0.15
2023-01-27T08:48:46.269Z,-0.08
2023-01-27T08:49:49.127Z,-0.17
2023-01-27T08:50:51.454Z,-0.28
2023-01-27T08:51:53.748Z,-0.30
2023-01-27T08:52:59.034Z,-0.19
2023-01-27T08:54:01.390Z,-0.19
2023-01-27T08:55:03.927Z,-0.05
2023-01-27T08:56:10.506Z,0.24
2023-01-27T08:57:12.731Z,0.01
2023-01-27T08:58:15.112Z,-0.09
2023-01-27T08:59:17.513Z,0.01
2023-01-27T09:00:19.954Z,-0.06
2023-01-27T09:01:22.680Z,-0.19
2023-01-27T09:02:24.942Z,-0.22
2023-01-27T09:03:27.233Z,-0.22
2023-01-27T09:04:30.887Z,-0.31
2023-01-27T09:05:36.083Z,-0.31
2023-01-27T09:06:38.296Z,-0.25
2023-01-27T09:07:40.622Z,-0.20
2023-01-27T09:08:43.570Z,-0.17
2023-01-27T09:09:49.665Z,-0.19
2023-01-27T09:10:52.822Z,-0.21
2023-01-27T09:11:55.042Z,-0.16
2023-01-27T09:12:57.854Z,-0.34
2023-01-27T09:14:00.109Z,-0.37
2023-01-27T09:15:02.899Z,-0.33
2023-01-27T09:16:05.439Z,-0.41
2023-01-27T09:17:07.899Z,-0.48
2023-01-27T09:18:10.905Z,-0.47
2023-01-27T09:19:13.442Z,-0.40
2023-01-27T09:20:16.107Z,-0.35
2023-01-27T09:21:18.548Z,-0.34
2023-01-27T09:22:20.821Z,-0.41
2023-01-27T09:23:23.051Z,-0.41
2023-01-27T09:24:25.299Z,-0.43
2023-01-27T09:25:27.572Z,-0.34
2023-01-27T09:26:29.783Z,-0.29
2023-01-27T09:27:39.136Z,-0.37
2023-01-27T09:28:42.249Z,-0.15
2023-01-27T09:29:44.444Z,-0.14
2023-01-27T09:30:47.451Z,-0.19
2023-01-27T09:31:49.779Z,-0.23
2023-01-27T09:32:52.240Z,-0.03
2023-01-27T09:33:54.388Z,0.01
2023-01-27T09:34:56.639Z,0.12
2023-01-27T09:36:20.261Z,-0.09
2023-01-27T09:37:23.847Z,-0.23
2023-01-27T09:38:28.643Z,-0.25
2023-01-27T09:39:34.675Z,-0.14
2023-01-27T09:41:23.715Z,-0.17
2023-01-27T09:42:48.916Z,-0.12
2023-01-27T09:44:16.607Z,-0.01
2023-01-27T09:45:49.561Z,0.01
2023-01-27T09:47:12.519Z,0.20
2023-01-27T09:48:14.655Z,0.01
2023-01-27T09:49:41.040Z,-0.06
2023-01-27T09:50:57.663Z,-0.10
2023-01-27T09:52:45.488Z,-0.06
2023-01-27T09:53:54.513Z,0.01
2023-01-27T09:55:26.689Z,0.04
2023-01-27T09:57:02.071Z,0.11
2023-01-27T09:58:17.691Z,0.18
2023-01-27T09:59:29.966Z,0.25
2023-01-27T10:00:46.091Z,0.11
2023-01-27T10:02:17.613Z,-0.07
2023-01-27T10:03:33.083Z,-0.27
2023-01-27T10:04:37.962Z,-0.21
2023-01-27T10:06:12.320Z,-0.18
2023-01-27T10:07:29.156Z,-0.17
2023-01-27T10:08:50.419Z,-0.10
2023-01-27T10:10:11.363Z,0.04
2023-01-27T10:11:28.420Z,0.15
2023-01-27T10:12:58.263Z,0.34
2023-01-27T10:14:15.752Z,0.39
2023-01-27T10:15:32.555Z,0.39
2023-01-27T10:16:46.684Z,0.26
2023-01-27T10:18:00.708Z,0.08
2023-01-27T10:19:05.695Z,0.13
2023-01-27T10:20:19.109Z,0.13
2023-01-27T10:21:48.409Z,0.24
2023-01-27T10:23:09.298Z,0.16
2023-01-27T10:24:38.708Z,0.12
2023-01-27T10:25:50.650Z,0.15
2023-01-27T10:27:21.130Z,0.09
2023-01-27T10:28:27.416Z,0.06
2023-01-27T10:29:38.231Z,0.16
2023-01-27T10:31:16.070Z,0.23
2023-01-27T10:32:29.559Z,0.17
2023-01-27T10:33:53.493Z,0.22
2023-01-27T10:35:19.259Z,0.44
2023-01-27T10:36:34.898Z,0.66
2023-01-27T10:38:02.866Z,0.48
2023-01-27T10:39:35.057Z,0.27
2023-01-27T10:40:58.055Z,0.14
2023-01-27T10:42:03.195Z,0.11
2023-01-27T10:43:35.072Z,0.28
2023-01-27T10:44:46.064Z,0.34
2023-01-27T10:46:25.238Z,0.27
2023-01-27T10:47:42.722Z,0.24
2023-01-27T10:48:54.823Z,0.19
2023-01-27T10:50:05.438Z,0.28
2023-01-27T10:51:19.448Z,0.19
2023-01-27T10:52:27.581Z,0.34
2023-01-27T10:53:41.909Z,0.30
2023-01-27T10:54:55.716Z,0.21
2023-01-27T10:56:10.493Z,0.32
2023-01-27T10:57:24.754Z,0.21
2023-01-27T10:58:29.815Z,0.23
2023-01-27T10:59:40.653Z,0.20
2023-01-27T11:02:29.168Z,0.66
2023-01-27T11:03:38.473Z,0.38
2023-01-27T11:04:46.859Z,0.38
2023-01-27T11:05:56.403Z,0.36
2023-01-27T11:06:59.706Z,0.51
2023-01-27T11:08:32.697Z,0.56
2023-01-27T11:09:37.378Z,0.38
2023-01-27T11:11:05.009Z,0.72
2023-01-27T11:12:12.537Z,0.41
2023-01-27T11:13:16.357Z,0.27
2023-01-27T11:14:30.066Z,0.31
2023-01-27T11:15:34.094Z,0.40
2023-01-27T11:16:41.609Z,0.38
2023-01-27T11:17:52.267Z,0.36
2023-01-27T11:19:00.478Z,0.42
2023-01-27T11:20:26.728Z,0.40
2023-01-27T11:21:32.073Z,0.34
2023-01-27T11:23:09.479Z,0.37
2023-01-27T11:24:22.634Z,0.35
2023-01-27T11:25:29.366Z,0.49
2023-01-27T11:26:43.324Z,0.97
2023-01-27T11:28:14.813Z,0.80
2023-01-27T11:29:42.690Z,0.46
2023-01-27T11:31:15.120Z,0.37
2023-01-27T11:32:38.653Z,0.41
2023-01-27T11:33:57.876Z,0.39
2023-01-27T11:35:02.963Z,0.39
2023-01-27T11:36:08.885Z,0.38
2023-01-27T11:37:24.489Z,0.28
2023-01-27T11:38:26.746Z,0.29
2023-01-27T11:39:33.605Z,0.25
2023-01-27T11:40:38.432Z,0.42
2023-01-27T11:41:47.478Z,0.59
2023-01-27T11:42:52.566Z,0.54
2023-01-27T11:43:54.969Z,0.68
2023-01-27T11:44:58.123Z,0.66
2023-01-27T11:46:07.828Z,0.66
2023-01-27T11:47:23.953Z,0.59
2023-01-27T11:48:37.139Z,0.58
2023-01-27T11:49:44.824Z,0.57
2023-01-27T11:50:47.310Z,0.52
2023-01-27T11:51:49.568Z,0.38
2023-01-27T11:53:00.392Z,0.45
2023-01-27T11:54:10.910Z,0.44
2023-01-27T11:55:25.531Z,0.58
2023-01-27T11:56:28.515Z,0.73
2023-01-27T11:57:31.288Z,0.73
2023-01-27T11:58:47.240Z,0.62
2023-01-27T11:59:58.739Z,0.66
2023-01-27T12:01:05.541Z,0.66
2023-01-27T12:02:07.685Z,0.56
2023-01-27T12:03:22.424Z,0.57
2023-01-27T12:04:52.118Z,0.54
2023-01-27T12:05:59.048Z,0.52
2023-01-27T12:07:16.099Z,0.46
2023-01-27T12:08:45.953Z,0.40
2023-01-27T12:09:48.365Z,0.52
2023-01-27T12:10:50.551Z,0.43
2023-01-27T12:12:11.192Z,0.35
2023-01-27T12:13:18.156Z,0.32
2023-01-27T12:14:23.536Z,0.35
2023-01-27T12:15:28.677Z,0.33
2023-01-27T12:16:51.715Z,0.34
2023-01-27T12:18:00.875Z,0.46
2023-01-27T12:19:05.479Z,0.51
2023-01-27T12:20:22.736Z,0.62
2023-01-27T12:21:37.161Z,0.51
2023-01-27T12:22:44.178Z,0.46
2023-01-27T12:23:55.362Z,0.57
2023-01-27T12:25:01.943Z,0.37
2023-01-27T12:26:07.326Z,0.38
2023-01-27T12:27:21.054Z,0.30
2023-01-27T12:28:36.100Z,0.30
2023-01-27T12:29:48.721Z,0.36
2023-01-27T12:30:53.103Z,0.29
2023-01-27T12:31:58.496Z,0.37
2023-01-27T12:33:13.180Z,0.51
2023-01-27T12:34:27.229Z,0.65
2023-01-27T12:35:36.248Z,0.61
2023-01-27T12:36:40.773Z,0.63
2023-01-27T12:37:43.177Z,0.46
2023-01-27T12:38:52.992Z,0.40
2023-01-27T12:40:01.579Z,0.62
2023-01-27T12:41:09.635Z,0.87
2023-01-27T12:42:36.085Z,1.06
2023-01-27T12:44:18.195Z,0.84
2023-01-27T12:45:22.219Z,0.79
2023-01-27T12:46:26.747Z,0.85
2023-01-27T12:47:30.307Z,0.89
2023-01-27T12:48:34.028Z,0.92
2023-01-27T12:49:39.618Z,0.74
2023-01-27T12:50:50.531Z,0.75
2023-01-27T12:51:55.947Z,0.78
2023-01-27T12:53:05.870Z,0.76
2023-01-27T12:54:21.911Z,0.86
2023-01-27T12:55:33.886Z,0.70
2023-01-27T12:56:37.051Z,0.76
2023-01-27T12:57:43.467Z,0.83
2023-01-27T12:58:54.351Z,0.85
2023-01-27T12:59:58.467Z,0.77
2023-01-27T13:01:04.824Z,0.79
2023-01-27T13:02:30.569Z,0.68
2023-01-27T13:03:40.788Z,0.67
2023-01-27T13:04:44.205Z,0.56
2023-01-27T13:05:46.930Z,0.71
2023-01-27T13:06:54.103Z,0.57
2023-01-27T13:07:56.331Z,0.66
2023-01-27T13:08:59.982Z,0.58
2023-01-27T13:10:15.757Z,0.55
2023-01-27T13:11:29.807Z,0.66
2023-01-27T13:12:48.791Z,0.50
2023-01-27T13:13:51.402Z,0.67
2023-01-27T13:14:56.871Z,0.76
2023-01-27T13:16:19.053Z,0.68
2023-01-27T13:17:34.582Z,0.71
2023-01-27T13:18:42.296Z,0.67
2023-01-27T13:19:50.141Z,0.71
2023-01-27T13:21:01.540Z,0.84
2023-01-27T13:22:04.759Z,0.84
2023-01-27T13:23:22.651Z,0.75
2023-01-27T13:24:34.376Z,0.68
2023-01-27T13:25:54.337Z,0.59
2023-01-27T13:26:57.846Z,0.70
2023-01-27T13:28:01.505Z,0.61
2023-01-27T13:29:09.487Z,0.69
2023-01-27T13:30:36.680Z,0.84
2023-01-27T13:32:06.929Z,0.92
2023-01-27T13:33:22.223Z,1.06
2023-01-27T13:34:48.513Z,0.85
2023-01-27T13:36:15.335Z,0.88
2023-01-27T13:37:20.215Z,0.84
2023-01-27T13:38:29.616Z,0.97
2023-01-27T13:39:56.093Z,0.93
2023-01-27T13:40:59.434Z,1.02
2023-01-27T13:42:04.231Z,1.13
2023-01-27T13:43:19.978Z,1.17
2023-01-27T13:44:29.540Z,1.10
2023-01-27T13:45:42.676Z,0.83
2023-01-27T13:46:47.504Z,0.91
2023-01-27T13:47:59.183Z,0.98
2023-01-27T13:49:16.547Z,1.07
2023-01-27T13:50:29.599Z,1.10
2023-01-27T13:51:33.382Z,1.04
2023-01-27T13:52:35.802Z,0.99
2023-01-27T13:53:38.844Z,0.96
2023-01-27T13:54:41.272Z,0.96
2023-01-27T13:55:50.546Z,0.95
2023-01-27T13:57:26.381Z,0.95
2023-01-27T13:58:28.688Z,0.97
2023-01-27T13:59:42.862Z,0.84
2023-01-27T14:00:55.124Z,0.92
2023-01-27T14:02:18.724Z,1.02
2023-01-27T14:03:46.511Z,0.95
2023-01-27T14:05:20.970Z,0.95
2023-01-27T14:06:34.677Z,0.99
2023-01-27T14:07:45.451Z,0.91
2023-01-27T14:09:14.901Z,0.81
2023-01-27T14:10:36.260Z,0.91
2023-01-27T14:11:48.030Z,0.77
2023-01-27T14:13:17.365Z,0.69
2023-01-27T14:14:57.360Z,0.73
2023-01-27T14:16:02.404Z,0.91
2023-01-27T14:17:26.466Z,0.96
2023-01-27T14:18:39.377Z,0.91
2023-01-27T14:19:59.545Z,0.96
2023-01-27T14:21:19.643Z,0.81
2023-01-27T14:22:56.578Z,0.86
2023-01-27T14:24:03.261Z,0.78
2023-01-27T14:25:22.370Z,0.79
2023-01-27T14:26:53.915Z,0.77
2023-01-27T14:28:39.354Z,0.82
2023-01-27T14:30:29.278Z,0.68
2023-01-27T14:31:49.527Z,0.87
2023-01-27T14:32:57.843Z,0.97
2023-01-27T14:34:24.869Z,0.89
2023-01-27T14:35:39.197Z,0.88
2023-01-27T14:36:53.164Z,0.88
2023-01-27T14:38:04.630Z,0.86
2023-01-27T14:39:34.954Z,0.82
2023-01-27T14:40:57.112Z,0.83
2023-01-27T14:42:09.051Z,0.88
2023-01-27T14:43:34.761Z,0.85
2023-01-27T14:45:01.114Z,0.82
2023-01-27T14:46:38.689Z,0.79
2023-01-27T14:47:45.915Z,0.76
2023-01-27T14:49:19.047Z,0.78
2023-01-27T14:50:38.333Z,0.86
2023-01-27T14:51:50.679Z,0.78
2023-01-27T14:53:32.482Z,0.76
2023-01-27T14:54:52.628Z,0.80
2023-01-27T14:56:06.675Z,0.83
2023-01-27T14:57:22.660Z,0.88
2023-01-27T14:58:54.100Z,0.99
2023-01-27T15:00:02.544Z,1.06
2023-01-27T15:01:22.851Z,1.01
2023-01-27T15:02:31.847Z,0.93
2023-01-27T15:03:36.938Z,0.91
2023-01-27T15:05:00.450Z,0.94
2023-01-27T15:06:11.027Z,1.04
2023-01-27T15:07:44.642Z,0.89
2023-01-27T15:09:08.482Z,0.90
2023-01-27T15:10:22.342Z,0.81
2023-01-27T15:11:55.470Z,0.79
2023-01-27T15:13:25.280Z,0.82
2023-01-27T15:14:43.533Z,0.83